createdAt,value
2022-09-28T00:01:41.595Z,7.32
2022-09-28T00:04:17.699Z,7.26
2022-09-28T00:06:46.833Z,7.31
2022-09-28T00:09:16.024Z,7.26
2022-09-28T00:11:45.649Z,7.26
2022-09-28T00:14:15.106Z,7.29
2022-09-28T00:16:45.732Z,7.31
2022-09-28T00:19:17.494Z,7.31
2022-09-28T00:21:46.288Z,7.30
2022-09-28T00:27:00.287Z,7.27
2022-09-28T00:29:36.663Z,7.30
2022-09-28T00:32:08.164Z,7.28
2022-09-28T00:34:42.802Z,7.28
2022-09-28T00:37:12.529Z,7.28
2022-09-28T00:39:43.548Z,7.26
2022-09-28T00:42:16.021Z,7.21
2022-09-28T00:44:49.757Z,7.31
2022-09-28T00:47:45.080Z,7.32
2022-09-28T00:50:30.917Z,7.27
2022-09-28T00:53:07.100Z,7.25
2022-09-28T00:55:42.298Z,7.28
2022-09-28T00:58:15.082Z,7.29
2022-09-28T01:00:44.556Z,7.19
2022-09-28T01:03:15.295Z,7.16
2022-09-28T01:05:49.212Z,7.08
2022-09-28T01:08:21.946Z,7.13
2022-09-28T01:13:34.302Z,7.22
2022-09-28T01:16:14.915Z,7.10
2022-09-28T01:19:00.958Z,7.17
2022-09-28T01:24:43.837Z,7.17
2022-09-28T01:27:17.508Z,7.18
2022-09-28T01:29:54.609Z,7.13
2022-09-28T01:32:38.284Z,7.16
2022-09-28T01:35:12.689Z,7.13
2022-09-28T01:37:53.368Z,7.21
2022-09-28T01:40:35.796Z,7.17
2022-09-28T01:43:11.289Z,7.14
2022-09-28T01:45:45.876Z,7.12
2022-09-28T01:48:26.355Z,7.14
2022-09-28T01:51:01.253Z,7.05
2022-09-28T01:53:37.813Z,7.08
2022-09-28T01:56:19.228Z,7.05
2022-09-28T01:58:54.956Z,7.11
2022-09-28T02:01:29.777Z,7.11
2022-09-28T02:04:09.198Z,7.06
2022-09-28T02:06:48.742Z,7.12
2022-09-28T02:09:33.016Z,7.10
2022-09-28T02:12:08.456Z,7.09
2022-09-28T02:14:45.913Z,7.07
2022-09-28T02:17:15.716Z,6.96
2022-09-28T02:19:46.035Z,7.06
2022-09-28T02:22:27.550Z,7.10
2022-09-28T02:25:01.079Z,7.03
2022-09-28T02:27:38.408Z,6.93
2022-09-28T02:30:10.937Z,6.98
2022-09-28T02:32:49.580Z,7.02
2022-09-28T02:35:22.651Z,6.92
2022-09-28T02:37:52.270Z,6.90
2022-09-28T02:40:24.251Z,6.81
2022-09-28T02:43:11.466Z,6.83
2022-09-28T02:45:58.999Z,6.99
2022-09-28T02:49:04.894Z,6.99
2022-09-28T02:51:59.118Z,6.95
2022-09-28T02:54:45.768Z,6.91
2022-09-28T02:57:29.641Z,6.97
2022-09-28T03:00:08.048Z,6.92
2022-09-28T03:02:55.448Z,6.96
2022-09-28T03:05:33.316Z,6.94
2022-09-28T03:08:05.314Z,6.83
2022-09-28T03:10:46.166Z,7.02
2022-09-28T03:13:16.776Z,6.92
2022-09-28T03:15:48.757Z,6.99
2022-09-28T03:18:21.628Z,7.00
2022-09-28T03:20:50.731Z,7.07
2022-09-28T03:23:25.491Z,6.95
2022-09-28T03:25:55.736Z,6.99
2022-09-28T03:28:25.439Z,6.87
2022-09-28T03:30:54.735Z,7.02
2022-09-28T03:33:26.125Z,6.99
2022-09-28T03:35:55.843Z,7.02
2022-09-28T03:38:26.033Z,6.98
2022-09-28T03:40:57.019Z,6.96
2022-09-28T03:43:27.577Z,7.12
2022-09-28T03:46:01.793Z,7.08
2022-09-28T03:48:38.196Z,7.11
2022-09-28T03:51:13.883Z,7.11
2022-09-28T03:53:47.953Z,7.04
2022-09-28T03:56:18.039Z,7.12
2022-09-28T03:58:48.142Z,7.10
2022-09-28T04:01:18.580Z,7.11
2022-09-28T04:03:56.062Z,7.15
2022-09-28T04:06:32.414Z,7.26
2022-09-28T04:09:01.830Z,7.27
2022-09-28T04:11:47.515Z,7.20
2022-09-28T04:14:25.751Z,7.24
2022-09-28T04:16:55.276Z,7.20
2022-09-28T04:19:28.522Z,7.26
2022-09-28T04:22:12.447Z,7.21
2022-09-28T04:24:51.767Z,7.15
2022-09-28T04:27:34.967Z,7.22
2022-09-28T04:30:05.641Z,7.22
2022-09-28T04:32:40.299Z,7.28
2022-09-28T04:35:13.681Z,7.28
2022-09-28T04:37:43.155Z,7.35
2022-09-28T04:40:12.810Z,7.32
2022-09-28T04:42:41.950Z,7.24
2022-09-28T04:45:12.347Z,7.25
2022-09-28T04:50:35.558Z,7.22
2022-09-28T04:53:24.361Z,7.14
2022-09-28T04:56:01.351Z,7.34
2022-09-28T04:58:31.625Z,7.32
2022-09-28T05:01:03.219Z,7.33
2022-09-28T05:04:01.999Z,7.45
2022-09-28T05:06:56.388Z,7.48
2022-09-28T05:09:26.153Z,7.49
2022-09-28T05:11:56.036Z,7.49
2022-09-28T05:14:27.699Z,7.54
2022-09-28T05:16:56.917Z,7.60
2022-09-28T05:19:29.857Z,7.50
2022-09-28T05:22:10.921Z,7.60
2022-09-28T05:24:44.506Z,7.60
2022-09-28T05:27:13.858Z,7.65
2022-09-28T05:29:43.637Z,7.70
2022-09-28T05:32:32.519Z,7.51
2022-09-28T05:35:13.814Z,7.65
2022-09-28T05:37:54.652Z,7.52
2022-09-28T05:40:24.719Z,7.61
2022-09-28T05:42:53.685Z,7.64
2022-09-28T05:45:23.203Z,7.61
2022-09-28T05:47:52.589Z,7.68
2022-09-28T05:50:23.923Z,7.80
2022-09-28T05:53:07.217Z,8.01
2022-09-28T05:55:42.628Z,8.00
2022-09-28T05:58:11.656Z,8.03
2022-09-28T06:00:41.161Z,8.07
2022-09-28T06:03:14.131Z,8.07
2022-09-28T06:05:48.424Z,8.15
2022-09-28T06:08:19.592Z,8.19
2022-09-28T06:11:01.190Z,8.29
2022-09-28T06:13:35.768Z,8.20
2022-09-28T06:16:07.262Z,8.15
2022-09-28T06:18:37.354Z,8.01
2022-09-28T06:21:29.578Z,8.07
2022-09-28T06:24:05.900Z,8.31
2022-09-28T06:26:35.077Z,8.39
2022-09-28T06:29:04.489Z,8.48
2022-09-28T06:31:33.826Z,8.43
2022-09-28T06:34:04.315Z,8.50
2022-09-28T06:36:34.499Z,8.55
2022-09-28T06:39:06.813Z,8.78
2022-09-28T06:41:43.791Z,8.90
2022-09-28T06:44:22.099Z,8.81
2022-09-28T06:47:11.140Z,8.82
2022-09-28T06:50:04.018Z,8.71
2022-09-28T06:52:59.636Z,8.86
2022-09-28T06:56:00.774Z,9.07
2022-09-28T06:58:31.106Z,8.83
2022-09-28T07:01:01.400Z,8.79
2022-09-28T07:03:36.025Z,8.69
2022-09-28T07:06:31.262Z,8.91
2022-09-28T07:09:31.195Z,8.96
2022-09-28T07:12:27.748Z,9.03
2022-09-28T07:15:14.318Z,9.14
2022-09-28T07:17:59.707Z,9.17
2022-09-28T07:20:33.781Z,9.13
2022-09-28T07:23:17.287Z,9.30
2022-09-28T07:26:23.549Z,9.44
2022-09-28T07:29:08.630Z,9.28
2022-09-28T07:31:46.290Z,9.24
2022-09-28T07:34:41.085Z,9.31
2022-09-28T07:37:23.787Z,9.38
2022-09-28T07:40:14.819Z,9.47
2022-09-28T07:42:44.027Z,9.64
2022-09-28T07:45:21.581Z,9.75
2022-09-28T07:47:51.043Z,9.80
2022-09-28T07:50:39.477Z,9.73
2022-09-28T07:53:16.555Z,9.61
2022-09-28T07:56:21.697Z,9.66
2022-09-28T07:59:02.440Z,9.67
2022-09-28T08:01:53.026Z,9.66
2022-09-28T08:04:24.926Z,9.69
2022-09-28T08:06:59.411Z,9.72
2022-09-28T08:09:29.061Z,9.76
2022-09-28T08:12:17.988Z,9.69
2022-09-28T08:14:59.746Z,9.92
2022-09-28T08:17:51.979Z,10.09
2022-09-28T08:20:32.181Z,10.25
2022-09-28T08:23:05.588Z,10.13
2022-09-28T08:25:37.956Z,10.17
2022-09-28T08:28:12.805Z,10.37
2022-09-28T08:30:49.042Z,10.58
2022-09-28T08:33:35.654Z,10.77
2022-09-28T08:36:23.719Z,10.62
2022-09-28T08:38:59.408Z,10.43
2022-09-28T08:41:41.071Z,10.43
2022-09-28T08:47:46.659Z,10.94
2022-09-28T08:50:30.606Z,10.87
2022-09-28T08:53:14.203Z,11.10
2022-09-28T08:56:06.137Z,11.49
2022-09-28T08:58:40.324Z,11.91
2022-09-28T09:01:15.742Z,11.83
2022-09-28T09:03:52.162Z,11.73
2022-09-28T09:06:58.364Z,11.43
2022-09-28T09:09:52.597Z,10.99
2022-09-28T09:12:34.355Z,10.80
2022-09-28T09:15:29.752Z,10.74
2022-09-28T09:18:19.753Z,10.73
2022-09-28T09:21:14.068Z,10.75
2022-09-28T09:23:56.024Z,10.91
2022-09-28T09:26:38.688Z,10.94
2022-09-28T09:29:41.082Z,10.92
2022-09-28T09:32:30.311Z,11.12
2022-09-28T09:35:24.043Z,11.11
2022-09-28T09:38:33.308Z,11.14
2022-09-28T09:41:36.358Z,11.25
2022-09-28T09:44:49.386Z,11.61
2022-09-28T09:47:39.614Z,11.81
2022-09-28T09:50:29.433Z,11.43
2022-09-28T09:53:12.445Z,11.15
2022-09-28T09:55:45.600Z,10.90
2022-09-28T09:58:55.667Z,10.74
2022-09-28T10:01:38.895Z,10.88
2022-09-28T10:04:46.689Z,11.02
2022-09-28T10:07:35.325Z,11.41
2022-09-28T10:10:05.349Z,11.50
2022-09-28T10:12:43.252Z,11.60
2022-09-28T10:15:24.954Z,11.61
2022-09-28T10:18:20.854Z,11.48
2022-09-28T10:21:08.957Z,11.37
2022-09-28T10:24:04.613Z,11.29
2022-09-28T10:26:39.078Z,11.15
2022-09-28T10:29:17.515Z,11.13
2022-09-28T10:31:49.827Z,11.05
2022-09-28T10:34:36.471Z,10.90
2022-09-28T10:37:13.008Z,10.77
2022-09-28T10:40:43.441Z,10.82
2022-09-28T10:43:24.409Z,10.80
2022-09-28T10:46:07.082Z,10.75
2022-09-28T10:51:43.080Z,10.51
2022-09-28T10:54:19.577Z,10.44
2022-09-28T10:56:52.492Z,10.48
2022-09-28T10:59:44.114Z,10.32
2022-09-28T11:02:34.744Z,10.39
2022-09-28T11:05:25.474Z,10.45
2022-09-28T11:07:59.619Z,10.35
2022-09-28T11:10:39.107Z,10.41
2022-09-28T11:13:16.320Z,10.27
2022-09-28T11:15:59.385Z,10.27
2022-09-28T11:18:35.062Z,10.20
2022-09-28T11:21:17.492Z,10.19
2022-09-28T11:24:06.045Z,10.18
2022-09-28T11:26:42.249Z,10.15
2022-09-28T11:29:26.238Z,10.17
2022-09-28T11:32:21.415Z,10.23
2022-09-28T11:35:20.298Z,10.11
2022-09-28T11:38:05.466Z,10.08
2022-09-28T11:41:17.955Z,10.07
2022-09-28T11:44:01.984Z,10.18
2022-09-28T11:46:41.588Z,10.23
2022-09-28T11:49:34.259Z,10.25
2022-09-28T11:52:09.555Z,10.31
2022-09-28T11:54:52.462Z,10.28
2022-09-28T11:57:29.356Z,10.38
2022-09-28T12:00:01.936Z,10.41
2022-09-28T12:02:38.664Z,10.41
2022-09-28T12:05:20.952Z,10.44
2022-09-28T12:08:06.337Z,10.47
2022-09-28T12:11:01.633Z,10.58
2022-09-28T12:13:54.493Z,10.61
2022-09-28T12:16:53.424Z,10.56
2022-09-28T12:19:22.057Z,10.67
2022-09-28T12:21:53.769Z,10.62
2022-09-28T12:24:28.411Z,10.47
2022-09-28T12:27:05.457Z,10.40
2022-09-28T12:29:40.757Z,10.31
2022-09-28T12:32:19.879Z,10.23
2022-09-28T12:34:48.962Z,10.27
2022-09-28T12:37:36.998Z,10.26
2022-09-28T12:40:27.519Z,10.18
2022-09-28T12:43:17.205Z,10.17
2022-09-28T12:46:16.681Z,10.11
2022-09-28T12:56:44.091Z,9.83
2022-09-28T12:59:22.555Z,9.82
2022-09-28T13:02:36.978Z,9.95
2022-09-28T13:05:27.678Z,10.02
2022-09-28T13:08:05.246Z,9.82
2022-09-28T13:10:42.590Z,10.07
2022-09-28T13:13:32.215Z,10.13
2022-09-28T13:16:07.314Z,10.07
2022-09-28T13:18:50.935Z,10.06
2022-09-28T13:21:29.078Z,9.97
2022-09-28T13:24:20.938Z,10.07
2022-09-28T13:27:12.023Z,9.86
2022-09-28T13:29:44.527Z,10.07
2022-09-28T13:32:14.807Z,10.13
2022-09-28T13:34:44.401Z,10.07
2022-09-28T13:37:25.331Z,10.24
2022-09-28T13:39:56.353Z,10.39
2022-09-28T13:42:41.600Z,10.38
2022-09-28T13:45:40.949Z,10.42
2022-09-28T13:48:16.875Z,10.36
2022-09-28T13:51:06.562Z,10.34
2022-09-28T13:53:52.500Z,10.28
2022-09-28T13:56:43.470Z,10.25
2022-09-28T13:59:20.260Z,10.20
2022-09-28T14:01:56.740Z,10.24
2022-09-28T14:04:54.821Z,10.18
2022-09-28T14:10:20.463Z,10.09
2022-09-28T14:12:51.258Z,10.02
2022-09-28T14:15:48.034Z,10.07
2022-09-28T14:18:27.456Z,10.02
2022-09-28T14:21:14.191Z,10.07
2022-09-28T14:23:58.992Z,10.08
2022-09-28T14:26:56.456Z,10.04
2022-09-28T14:29:30.909Z,10.02
2022-09-28T14:32:01.065Z,10.02
2022-09-28T14:34:39.635Z,10.09
2022-09-28T14:37:36.416Z,10.00
2022-09-28T14:40:30.994Z,10.13
2022-09-28T14:43:27.868Z,10.17
2022-09-28T14:46:26.595Z,10.14
2022-09-28T14:48:57.086Z,10.13
2022-09-28T14:52:02.565Z,10.19
2022-09-28T14:54:44.910Z,10.21
2022-09-28T14:57:23.761Z,10.22
2022-09-28T14:59:53.741Z,10.08
2022-09-28T15:02:26.634Z,10.25
2022-09-28T15:04:59.549Z,10.28
2022-09-28T15:07:35.250Z,10.29
2022-09-28T15:10:06.820Z,10.25
2022-09-28T15:12:38.471Z,10.23
2022-09-28T15:15:24.822Z,10.17
2022-09-28T15:18:05.296Z,10.23
2022-09-28T15:20:42.460Z,10.21
2022-09-28T15:23:34.739Z,10.21
2022-09-28T15:26:06.803Z,10.13
2022-09-28T15:28:38.952Z,10.08
2022-09-28T15:31:08.290Z,10.06
2022-09-28T15:33:56.260Z,9.94
2022-09-28T15:36:28.166Z,10.06
2022-09-28T15:39:02.076Z,10.14
2022-09-28T15:41:31.668Z,10.06
2022-09-28T15:44:34.992Z,10.09
2022-09-28T15:47:15.328Z,10.07
2022-09-28T15:49:48.616Z,10.05
2022-09-28T15:52:27.192Z,10.08
2022-09-28T15:55:00.583Z,10.06
2022-09-28T15:57:36.571Z,10.00
2022-09-28T16:00:09.568Z,9.92
2022-09-28T16:03:01.579Z,9.95
2022-09-28T16:05:40.007Z,9.86
2022-09-28T16:08:25.937Z,9.92
2022-09-28T16:11:10.584Z,9.90
2022-09-28T16:13:47.791Z,9.83
2022-09-28T16:16:18.577Z,9.78
2022-09-28T16:18:55.800Z,9.77
2022-09-28T16:21:37.359Z,9.58
2022-09-28T16:24:08.153Z,9.68
2022-09-28T16:26:40.428Z,9.72
2022-09-28T16:29:11.551Z,9.65
2022-09-28T16:31:45.137Z,9.58
2022-09-28T16:34:22.320Z,9.73
2022-09-28T16:36:52.187Z,9.76
2022-09-28T16:39:21.455Z,9.71
2022-09-28T16:41:57.061Z,9.75
2022-09-28T16:44:30.293Z,9.75
2022-09-28T16:47:07.138Z,9.77
2022-09-28T16:49:35.856Z,9.88
2022-09-28T16:52:05.335Z,9.77
2022-09-28T16:54:54.832Z,9.73
2022-09-28T16:57:26.083Z,9.71
2022-09-28T16:59:55.220Z,9.71
2022-09-28T17:05:15.899Z,9.70
2022-09-28T17:07:46.309Z,9.69
2022-09-28T17:10:19.494Z,9.69
2022-09-28T17:12:50.676Z,9.66
2022-09-28T17:15:20.148Z,9.67
2022-09-28T17:17:55.296Z,9.67
2022-09-28T17:20:35.934Z,9.62
2022-09-28T17:23:05.124Z,9.65
2022-09-28T17:25:34.238Z,9.68
2022-09-28T17:28:07.205Z,9.73
2022-09-28T17:30:36.723Z,9.74
2022-09-28T17:33:05.965Z,9.76
2022-09-28T17:35:39.649Z,9.77
2022-09-28T17:38:08.994Z,9.82
2022-09-28T17:40:38.338Z,9.85
2022-09-28T17:43:10.408Z,9.73
2022-09-28T17:45:48.339Z,9.91
2022-09-28T17:48:20.784Z,9.89
2022-09-28T17:50:50.243Z,9.91
2022-09-28T17:53:19.477Z,9.87
2022-09-28T17:55:53.554Z,9.88
2022-09-28T17:58:24.880Z,9.88
2022-09-28T18:00:54.564Z,9.86
2022-09-28T18:03:25.126Z,9.88
2022-09-28T18:06:03.336Z,9.87
2022-09-28T18:08:32.690Z,9.90
2022-09-28T18:11:02.496Z,9.91
2022-09-28T18:13:34.510Z,9.88
2022-09-28T18:16:04.320Z,9.85
2022-09-28T18:18:39.528Z,9.84
2022-09-28T18:21:09.069Z,9.84
2022-09-28T18:23:40.690Z,9.85
2022-09-28T18:26:13.824Z,9.87
2022-09-28T18:28:45.499Z,9.87
2022-09-28T18:31:15.303Z,10.00
2022-09-28T18:33:44.525Z,9.87
2022-09-28T18:36:20.017Z,9.82
2022-09-28T18:38:49.770Z,9.78
2022-09-28T18:41:19.100Z,9.73
2022-09-28T18:43:52.216Z,9.75
2022-09-28T18:46:21.598Z,9.66
2022-09-28T18:49:01.029Z,9.70
2022-09-28T18:51:30.531Z,9.68
2022-09-28T18:53:59.616Z,9.65
2022-09-28T18:56:29.303Z,9.65
2022-09-28T18:59:01.363Z,9.60
2022-09-28T19:01:31.493Z,9.49
2022-09-28T19:04:02.159Z,9.47
2022-09-28T19:06:32.166Z,9.52
2022-09-28T19:09:02.011Z,9.53
2022-09-28T19:11:31.079Z,9.51
2022-09-28T19:14:08.204Z,9.51
2022-09-28T19:16:42.777Z,9.48
2022-09-28T19:19:14.360Z,9.43
2022-09-28T19:21:45.128Z,9.38
2022-09-28T19:24:15.668Z,9.48
2022-09-28T19:26:48.074Z,9.48
2022-09-28T19:29:19.624Z,9.42
2022-09-28T19:31:48.823Z,9.58
2022-09-28T19:34:18.602Z,9.26
2022-09-28T19:36:48.028Z,9.43
2022-09-28T19:39:17.491Z,9.41
2022-09-28T19:41:55.787Z,9.25
2022-09-28T19:44:28.487Z,9.34
2022-09-28T19:46:59.661Z,9.37
2022-09-28T19:49:32.725Z,9.38
2022-09-28T19:52:12.814Z,9.37
2022-09-28T19:54:43.359Z,9.38
2022-09-28T19:57:12.620Z,9.33
2022-09-28T19:59:43.745Z,9.33
2022-09-28T20:02:13.677Z,9.33
2022-09-28T20:04:42.814Z,9.30
2022-09-28T20:07:11.967Z,9.32
2022-09-28T20:09:41.640Z,9.30
2022-09-28T20:12:11.006Z,9.19
2022-09-28T20:14:40.542Z,9.30
2022-09-28T20:17:13.244Z,9.33
2022-09-28T20:19:42.447Z,9.32
2022-09-28T20:22:11.890Z,9.27
2022-09-28T20:24:41.001Z,9.20
2022-09-28T20:27:10.045Z,9.22
2022-09-28T20:29:39.723Z,9.24
2022-09-28T20:32:08.812Z,9.17
2022-09-28T20:34:40.058Z,9.22
2022-09-28T20:37:09.146Z,9.30
2022-09-28T20:39:42.747Z,9.25
2022-09-28T20:42:15.669Z,9.25
2022-09-28T20:44:50.099Z,9.12
2022-09-28T20:47:19.466Z,9.33
2022-09-28T20:49:56.695Z,9.35
2022-09-28T20:52:30.887Z,9.33
2022-09-28T20:55:00.065Z,9.32
2022-09-28T20:57:29.662Z,9.32
2022-09-28T20:59:59.354Z,9.32
2022-09-28T21:02:28.620Z,9.26
2022-09-28T21:04:59.810Z,9.22
2022-09-28T21:07:28.879Z,9.26
2022-09-28T21:09:59.594Z,9.25
2022-09-28T21:12:29.142Z,9.23
2022-09-28T21:15:01.161Z,9.19
2022-09-28T21:20:15.640Z,9.25
2022-09-28T21:22:44.766Z,9.29
2022-09-28T21:25:14.007Z,9.34
2022-09-28T21:27:43.069Z,9.21
2022-09-28T21:30:13.204Z,9.32
2022-09-28T21:32:50.046Z,9.34
2022-09-28T21:35:21.178Z,9.31
2022-09-28T21:37:50.291Z,9.30
2022-09-28T21:40:20.061Z,9.26
2022-09-28T21:42:52.057Z,9.24
2022-09-28T21:45:21.484Z,9.19
2022-09-28T21:50:32.936Z,9.27
2022-09-28T21:53:02.800Z,9.11
2022-09-28T21:55:31.909Z,9.22
2022-09-28T21:58:01.126Z,9.30
2022-09-28T22:00:30.160Z,9.30
2022-09-28T22:03:04.711Z,9.30
2022-09-28T22:05:36.029Z,9.30
2022-09-28T22:08:05.169Z,9.30
2022-09-28T22:10:34.224Z,9.25
2022-09-28T22:13:04.034Z,9.25
2022-09-28T22:15:33.172Z,9.23
2022-09-28T22:18:02.507Z,9.20
2022-09-28T22:20:31.595Z,9.15
2022-09-28T22:23:12.720Z,9.13
2022-09-28T22:25:47.244Z,9.15
2022-09-28T22:28:16.449Z,9.09
2022-09-28T22:30:46.272Z,9.18
2022-09-28T22:33:15.736Z,9.21
2022-09-28T22:35:45.977Z,9.17
2022-09-28T22:38:17.597Z,9.14
2022-09-28T22:40:54.924Z,9.07
2022-09-28T22:43:26.298Z,9.17
2022-09-28T22:46:09.253Z,9.15
2022-09-28T22:48:45.328Z,9.20
2022-09-28T22:51:14.750Z,9.22
2022-09-28T22:53:45.701Z,9.20
2022-09-28T22:56:18.666Z,9.11
2022-09-28T22:58:48.612Z,9.12
2022-09-28T23:01:19.442Z,9.15
2022-09-28T23:03:49.026Z,9.16
2022-09-28T23:06:24.029Z,9.02
2022-09-28T23:08:55.418Z,8.96
2022-09-28T23:11:24.857Z,9.02
2022-09-28T23:13:54.992Z,9.06
2022-09-28T23:16:26.225Z,9.06
2022-09-28T23:18:56.375Z,9.07
2022-09-28T23:21:27.326Z,9.08
2022-09-28T23:24:00.772Z,9.12
2022-09-28T23:26:31.940Z,9.09
2022-09-28T23:29:01.624Z,9.06
2022-09-28T23:31:32.473Z,9.07
2022-09-28T23:36:37.734Z,8.98
2022-09-28T23:39:08.734Z,9.02
2022-09-28T23:41:42.862Z,8.95
2022-09-28T23:44:11.809Z,9.03
2022-09-28T23:46:41.035Z,9.06
2022-09-28T23:49:10.189Z,9.05
2022-09-28T23:51:39.914Z,9.07
2022-09-28T23:54:11.181Z,9.09
2022-09-28T23:56:40.258Z,9.17
2022-09-28T23:59:09.157Z,9.20
